LOWL

Linz

Airport
ICAO code
LOWL
IATA Code
LNZ
Summary
ICAO Region
EUR
ICAO Territory
Location

Horsching, Upper Austria

Serving
Linz
Elevation
977 ft
Coordinates
48° 13' 60" N , 14° 11' 15" E
KCC
Metar
Observation
LOWL 081020Z AUTO VRB02KT 9999 FEW050 03/00 Q1011 NOSIG
Station
Linz / Hoersching-Flughafen
Date/Time
2022-12-08 10:20:00
Wind speed
02 kts
Lowest cloud amount
few clouds
Temperature
3°C
Dew point
0°C
Humidity
80%
QNH
1011 hPa
Weather condition
n/a

International airport serving Linz, Austria.

Climatology

Humid Continental climate (Köppen climate classification Dfb)

Runways

Designator Length Width Surface Rops
09L/27R 660 45 GRS No/No
9/27 3000 60 ASP Yes/Yes

Airport map

Aerial View

SKYbrary Partners:

Safety knowledge contributed by: